createdAt,value
2022-08-11T11:34:30.386Z,36.95
2022-08-11T11:35:30.539Z,36.90
2022-08-11T11:36:30.502Z,37.03
2022-08-11T11:37:30.576Z,37.09
2022-08-11T11:38:30.490Z,37.38
2022-08-11T11:39:30.441Z,37.37
2022-08-11T11:40:31.611Z,37.47
2022-08-11T11:41:30.522Z,37.78
2022-08-11T11:42:30.494Z,37.99
2022-08-11T11:43:30.454Z,37.93
2022-08-11T11:44:30.460Z,38.02
2022-08-11T11:45:30.463Z,37.94
2022-08-11T11:46:30.516Z,37.84
2022-08-11T11:47:30.434Z,37.95
2022-08-11T11:48:30.535Z,37.92
2022-08-11T11:49:30.472Z,38.16
2022-08-11T11:50:32.731Z,38.28
2022-08-11T11:51:30.582Z,38.26
2022-08-11T11:52:30.456Z,37.69
2022-08-11T11:53:30.511Z,37.60
2022-08-11T11:54:30.488Z,37.47
2022-08-11T11:55:30.537Z,37.44
2022-08-11T11:56:30.513Z,37.40
2022-08-11T11:57:30.702Z,37.32
2022-08-11T11:58:30.598Z,37.28
2022-08-11T11:59:30.513Z,37.12
2022-08-11T12:00:32.915Z,36.87
2022-08-11T12:01:30.555Z,36.64
2022-08-11T12:02:30.588Z,36.36
2022-08-11T12:03:30.617Z,36.31
2022-08-11T12:04:30.601Z,36.18
2022-08-11T12:05:30.526Z,36.49
2022-08-11T12:06:30.600Z,36.61
2022-08-11T12:07:30.502Z,36.67
2022-08-11T12:08:30.565Z,36.08
2022-08-11T12:09:30.630Z,36.10
2022-08-11T12:10:30.549Z,36.37
2022-08-11T12:11:30.547Z,36.68
2022-08-11T12:12:30.555Z,36.91
2022-08-11T12:13:30.671Z,37.07
2022-08-11T12:14:30.564Z,37.05
2022-08-11T12:16:03.539Z,37.05
2022-08-11T12:16:32.774Z,36.96
2022-08-11T12:17:30.592Z,36.91
2022-08-11T12:18:30.622Z,36.40
2022-08-11T12:19:35.699Z,36.38
2022-08-11T12:20:31.646Z,36.12
2022-08-11T12:21:30.571Z,36.22
2022-08-11T12:22:30.592Z,35.92
2022-08-11T12:23:30.570Z,35.64
2022-08-11T12:24:30.579Z,35.24
2022-08-11T12:25:30.623Z,34.62
2022-08-11T12:26:30.643Z,34.17
2022-08-11T12:27:30.596Z,33.67
2022-08-11T12:28:30.603Z,33.35
2022-08-11T12:29:30.580Z,33.09
2022-08-11T12:30:30.910Z,32.80
2022-08-11T12:31:30.644Z,32.68
2022-08-11T12:32:30.638Z,32.80
2022-08-11T12:33:30.632Z,32.71
2022-08-11T12:34:30.676Z,32.79
2022-08-11T12:35:30.614Z,32.82
2022-08-11T12:36:30.618Z,32.98
2022-08-11T12:37:30.645Z,33.08
2022-08-11T12:38:30.637Z,32.92
2022-08-11T12:40:16.680Z,33.04
2022-08-11T12:40:43.635Z,32.87
2022-08-11T12:41:30.826Z,32.60
2022-08-11T12:42:30.662Z,32.44
2022-08-11T12:43:38.896Z,32.36
2022-08-11T12:44:30.640Z,32.33
2022-08-11T12:45:30.649Z,32.31
2022-08-11T12:46:30.632Z,32.22
2022-08-11T12:47:30.675Z,31.93
2022-08-11T12:49:01.010Z,31.74
2022-08-11T12:49:30.688Z,31.68
2022-08-11T12:50:30.761Z,31.69
2022-08-11T12:51:30.742Z,31.77
2022-08-11T12:52:30.729Z,31.86
2022-08-11T12:53:30.673Z,31.69
2022-08-11T12:54:30.662Z,31.52
2022-08-11T12:55:30.718Z,31.30
2022-08-11T12:56:30.675Z,31.28
2022-08-11T12:57:37.491Z,31.19
2022-08-11T12:58:30.692Z,30.98
2022-08-11T12:59:30.732Z,30.98
2022-08-11T13:00:30.734Z,30.99
2022-08-11T13:01:30.729Z,30.96
2022-08-11T13:02:30.688Z,31.06
2022-08-11T13:03:30.720Z,31.13
2022-08-11T13:04:30.704Z,31.14
2022-08-11T13:05:30.710Z,31.16
2022-08-11T13:06:30.703Z,31.33
2022-08-11T13:07:50.884Z,31.52
2022-08-11T13:08:30.738Z,31.73
2022-08-11T13:09:30.709Z,31.98
2022-08-11T13:10:30.869Z,32.04
2022-08-11T13:11:54.529Z,32.18
2022-08-11T13:12:30.719Z,32.17
2022-08-11T13:13:54.497Z,32.17
2022-08-11T13:14:30.708Z,32.18
2022-08-11T13:15:30.829Z,32.06
2022-08-11T13:16:30.843Z,32.06
2022-08-11T13:17:40.080Z,31.94
2022-08-11T13:18:30.761Z,31.55
2022-08-11T13:19:30.808Z,31.48
2022-08-11T13:20:30.757Z,31.31
2022-08-11T13:21:30.789Z,31.19
2022-08-11T13:22:32.559Z,31.25
2022-08-11T13:23:30.772Z,31.50
2022-08-11T13:24:30.720Z,31.51
2022-08-11T13:25:30.752Z,31.59
2022-08-11T13:26:47.466Z,31.67
2022-08-11T13:27:30.844Z,31.95
2022-08-11T13:28:30.796Z,32.11
2022-08-11T13:29:30.825Z,32.24
2022-08-11T13:30:32.583Z,32.39
2022-08-11T13:31:30.793Z,32.51
2022-08-11T13:32:30.846Z,32.70
2022-08-11T13:33:30.789Z,32.63
2022-08-11T13:34:30.749Z,32.79
2022-08-11T13:35:30.796Z,33.16
2022-08-11T13:36:30.797Z,33.26
2022-08-11T13:38:18.533Z,33.45
2022-08-11T13:38:31.100Z,33.82
2022-08-11T13:39:30.884Z,34.18
2022-08-11T13:40:45.767Z,34.13
2022-08-11T13:41:30.859Z,34.09
2022-08-11T13:42:30.797Z,33.52
2022-08-11T13:43:30.824Z,33.30
2022-08-11T13:44:30.808Z,33.13
2022-08-11T13:45:30.808Z,32.89
2022-08-11T13:46:30.823Z,32.72
2022-08-11T13:47:30.838Z,32.47
2022-08-11T13:48:30.828Z,32.56
2022-08-11T13:49:30.852Z,32.66
2022-08-11T13:50:30.870Z,32.48
2022-08-11T13:51:34.256Z,32.26
2022-08-11T13:52:30.856Z,32.06
2022-08-11T13:53:30.920Z,31.86
2022-08-11T13:54:30.851Z,31.94
2022-08-11T13:55:51.078Z,31.93
2022-08-11T13:56:30.902Z,31.97
2022-08-11T13:58:06.770Z,31.78
2022-08-11T13:58:40.296Z,31.69
2022-08-11T13:59:31.524Z,31.39
2022-08-11T14:00:30.930Z,31.21
2022-08-11T14:02:20.120Z,30.82
2022-08-11T14:02:31.167Z,30.60
2022-08-11T14:04:31.487Z,30.40
2022-08-11T14:04:32.385Z,30.21
2022-08-11T14:05:30.882Z,30.29
2022-08-11T14:06:30.900Z,30.38
2022-08-11T14:07:30.887Z,30.44
2022-08-11T14:08:37.391Z,30.43
2022-08-11T14:09:30.898Z,30.47
2022-08-11T14:10:30.893Z,30.50
2022-08-11T14:12:22.293Z,30.51
2022-08-11T14:12:30.888Z,30.45
2022-08-11T14:13:42.647Z,30.40
2022-08-11T14:14:31.015Z,30.35
2022-08-11T14:15:30.894Z,30.25
2022-08-11T14:16:30.960Z,30.32
2022-08-11T14:17:35.904Z,30.31
2022-08-11T14:18:30.987Z,30.28
2022-08-11T14:19:30.914Z,30.20
2022-08-11T14:20:39.083Z,30.19
2022-08-11T14:21:30.974Z,30.17
2022-08-11T14:22:30.990Z,30.17
2022-08-11T14:23:31.026Z,30.14
2022-08-11T14:24:30.993Z,30.04
2022-08-11T14:26:00.032Z,30.02
2022-08-11T14:26:30.935Z,30.00
2022-08-11T14:28:15.446Z,29.94
2022-08-11T14:28:36.235Z,29.83
2022-08-11T14:29:30.937Z,29.87
2022-08-11T14:30:30.904Z,29.92
2022-08-11T14:31:31.022Z,29.98
2022-08-11T14:32:30.945Z,30.01
2022-08-11T14:33:58.074Z,30.02
2022-08-11T14:34:31.013Z,29.98
2022-08-11T14:35:31.041Z,29.95
2022-08-11T14:36:30.950Z,29.92
2022-08-11T14:37:30.963Z,29.84
2022-08-11T14:38:31.047Z,29.82
2022-08-11T14:39:30.983Z,29.76
2022-08-11T14:40:31.706Z,29.72
2022-08-11T14:41:31.051Z,29.66
2022-08-11T14:42:31.028Z,29.64
2022-08-11T14:44:10.441Z,29.56
2022-08-11T14:44:31.047Z,29.52
2022-08-11T14:45:57.723Z,29.51
2022-08-11T14:47:31.094Z,29.36
2022-08-11T14:48:31.118Z,29.37
2022-08-11T14:49:31.049Z,29.29
2022-08-11T14:50:31.036Z,29.25
2022-08-11T14:51:31.063Z,29.24
2022-08-11T14:52:31.141Z,29.20
2022-08-11T14:53:31.215Z,29.18
2022-08-11T14:54:31.060Z,29.12
2022-08-11T14:55:31.072Z,29.13
2022-08-11T14:56:31.075Z,29.07
2022-08-11T14:58:04.941Z,28.98
2022-08-11T14:58:31.085Z,29.01
2022-08-11T14:59:31.082Z,29.02
2022-08-11T15:00:31.178Z,29.00
2022-08-11T15:01:31.202Z,28.88
2022-08-11T15:02:31.070Z,28.75
2022-08-11T15:03:31.096Z,28.76
2022-08-11T15:04:36.179Z,28.68
2022-08-11T15:05:31.160Z,28.69
2022-08-11T15:06:31.095Z,28.54
2022-08-11T15:07:31.127Z,28.45
2022-08-11T15:08:31.295Z,28.49
2022-08-11T15:09:31.109Z,28.53
2022-08-11T15:10:31.109Z,28.49
2022-08-11T15:11:31.128Z,28.47
2022-08-11T15:12:33.072Z,28.48
2022-08-11T15:13:31.165Z,28.39
2022-08-11T15:14:31.213Z,28.29
2022-08-11T15:15:31.210Z,28.35
2022-08-11T15:16:31.201Z,28.36
2022-08-11T15:17:42.760Z,28.32
2022-08-11T15:18:31.278Z,28.29
2022-08-11T15:19:40.435Z,28.25
2022-08-11T15:20:31.277Z,28.30
2022-08-11T15:21:31.249Z,28.28
2022-08-11T15:22:31.230Z,28.14
2022-08-11T15:23:31.273Z,28.09
2022-08-11T15:24:31.325Z,28.08
2022-08-11T15:25:31.261Z,28.09
2022-08-11T15:26:31.248Z,28.07
2022-08-11T15:27:31.315Z,28.00
2022-08-11T15:28:31.277Z,27.86
2022-08-11T15:29:31.295Z,27.89
2022-08-11T15:30:33.381Z,27.95
2022-08-11T15:31:31.308Z,27.92
2022-08-11T15:32:31.356Z,27.91
2022-08-11T15:33:31.371Z,27.87
2022-08-11T15:34:31.305Z,27.92
2022-08-11T15:35:38.782Z,27.89
2022-08-11T15:36:31.346Z,27.83
2022-08-11T15:37:31.320Z,27.68
2022-08-11T15:38:31.337Z,27.52
2022-08-11T15:39:31.412Z,27.55
2022-08-11T15:40:33.113Z,27.47
2022-08-11T15:41:31.391Z,27.50
2022-08-11T15:42:31.520Z,27.52
2022-08-11T15:43:31.396Z,27.55
2022-08-11T15:44:59.077Z,27.51
2022-08-11T15:45:31.342Z,27.50
2022-08-11T15:46:31.387Z,27.50
2022-08-11T15:47:31.418Z,27.53
2022-08-11T15:48:31.374Z,27.54
2022-08-11T15:50:10.861Z,27.56
2022-08-11T15:50:31.377Z,27.59
2022-08-11T15:51:31.358Z,27.56
2022-08-11T15:52:31.393Z,27.53
2022-08-11T15:53:31.386Z,27.54
2022-08-11T15:54:31.439Z,27.54
2022-08-11T15:55:31.378Z,27.52
2022-08-11T15:56:31.385Z,27.51
2022-08-11T15:57:40.086Z,27.40
2022-08-11T15:58:31.516Z,27.33
2022-08-11T15:59:43.286Z,27.26
2022-08-11T16:00:31.402Z,27.22
2022-08-11T16:01:31.467Z,27.19
2022-08-11T16:02:31.398Z,27.15
2022-08-11T16:04:06.176Z,27.16
2022-08-11T16:04:31.453Z,27.10
2022-08-11T16:05:45.585Z,26.98
2022-08-11T16:06:31.386Z,26.93
2022-08-11T16:07:31.414Z,27.01
2022-08-11T16:08:33.198Z,26.94
2022-08-11T16:09:35.558Z,26.95
2022-08-11T16:10:33.129Z,27.02
2022-08-11T16:11:31.546Z,27.07
2022-08-11T16:12:31.473Z,27.08
2022-08-11T16:13:31.535Z,27.15
2022-08-11T16:14:31.644Z,27.17
2022-08-11T16:15:31.586Z,27.16
2022-08-11T16:16:31.597Z,27.21
2022-08-11T16:17:31.616Z,27.22
2022-08-11T16:18:31.702Z,27.17
2022-08-11T16:19:31.725Z,27.15
2022-08-11T16:20:31.696Z,27.21
2022-08-11T16:21:34.955Z,27.14
2022-08-11T16:22:31.816Z,27.12
2022-08-11T16:23:32.024Z,27.04
2022-08-11T16:26:30.439Z,26.94
2022-08-11T16:27:03.825Z,27.04
2022-08-11T16:27:07.585Z,26.85
2022-08-11T16:27:31.803Z,26.76
2022-08-11T16:28:31.800Z,26.68
2022-08-11T16:29:31.772Z,26.62
